Time;durP1;ratioP1;P1;durP2;ratioP2;P2;SDS_P1;SDS_P2;PMS_P1;PMS_P2;Temp;Humidity;BMP_temperature;BMP_pressure;BME280_temperature;BME280_humidity;BME280_pressure;Samples;Min_cycle;Max_cycle;Signal;HPM_P1;HPM_P2
2023/07/26 00:00:50;;;;;;;13.40;8.87;;;;;;;16.78;100.00;97758.81;4136806;28;20742;-92
2023/07/26 00:02:54;;;;;;;10.30;8.47;;;;;;;16.77;100.00;97760.63;4118945;28;20648;-91
2023/07/26 00:04:57;;;;;;;9.80;7.97;;;;;;;16.76;100.00;97761.59;4119434;28;20769;-91
2023/07/26 00:06:59;;;;;;;12.07;8.90;;;;;;;16.74;100.00;97766.22;4102269;28;20662;-92
2023/07/26 00:09:02;;;;;;;11.60;8.40;;;;;;;16.75;100.00;97770.50;4133297;28;20694;-91
2023/07/26 00:11:05;;;;;;;10.20;8.17;;;;;;;16.78;100.00;97774.63;4103614;28;21015;-91
2023/07/26 00:13:08;;;;;;;10.77;8.47;;;;;;;16.79;100.00;97776.28;4124138;28;21015;-91
2023/07/26 00:15:13;;;;;;;12.43;8.90;;;;;;;16.80;100.00;97772.69;4137739;28;20649;-92
2023/07/26 00:17:16;;;;;;;11.07;8.00;;;;;;;16.78;100.00;97764.94;4120785;28;20655;-91
2023/07/26 00:19:19;;;;;;;11.97;8.90;;;;;;;16.79;100.00;97771.84;4134160;28;21019;-91
2023/07/26 00:21:23;;;;;;;13.20;9.43;;;;;;;16.79;100.00;97771.84;4132295;28;20655;-92
2023/07/26 00:23:26;;;;;;;12.27;9.60;;;;;;;16.80;100.00;97767.41;4125416;28;20650;-91
2023/07/26 00:25:29;;;;;;;10.70;7.97;;;;;;;16.78;100.00;97767.56;4121863;28;20650;-92
2023/07/26 00:27:34;;;;;;;12.00;8.37;;;;;;;16.78;100.00;97775.47;4133777;28;20740;-92
2023/07/26 00:29:37;;;;;;;13.43;9.90;;;;;;;16.79;100.00;97776.28;4119940;28;21042;-91
2023/07/26 00:31:42;;;;;;;12.53;8.77;;;;;;;16.77;100.00;97779.06;4118055;28;20751;-92
2023/07/26 00:33:45;;;;;;;11.70;8.40;;;;;;;16.78;100.00;97778.09;4105311;28;20745;-92
2023/07/26 00:35:48;;;;;;;12.50;8.63;;;;;;;16.79;100.00;97779.75;4134282;28;20754;-91
2023/07/26 00:37:51;;;;;;;11.67;8.00;;;;;;;16.79;100.00;97782.38;4135911;28;21238;-92
2023/07/26 00:39:54;;;;;;;11.23;8.80;;;;;;;16.75;100.00;97781.03;4119482;28;20666;-92
2023/07/26 00:41:58;;;;;;;13.33;9.30;;;;;;;16.76;100.00;97782.69;4132831;28;20794;-92
2023/07/26 00:44:02;;;;;;;13.23;9.43;;;;;;;16.76;100.00;97785.31;4109441;28;20659;-91
2023/07/26 00:46:06;;;;;;;12.00;9.43;;;;;;;16.76;100.00;97787.13;4107419;28;20663;-91
2023/07/26 00:48:11;;;;;;;13.10;9.50;;;;;;;16.74;100.00;97776.75;4118648;28;21021;-91
2023/07/26 00:50:14;;;;;;;11.20;8.80;;;;;;;16.74;100.00;97774.09;4136446;28;21314;-91
2023/07/26 00:52:18;;;;;;;11.57;9.53;;;;;;;16.75;100.00;97785.50;4123175;28;21074;-89
2023/07/26 00:54:22;;;;;;;11.63;9.43;;;;;;;16.77;100.00;97780.91;4122111;28;20640;-89
2023/07/26 00:56:26;;;;;;;12.37;9.10;;;;;;;16.77;100.00;97779.06;4129875;28;20787;-89
2023/07/26 00:58:29;;;;;;;13.90;10.30;;;;;;;16.77;100.00;97788.78;4101674;28;20647;-89
2023/07/26 01:00:32;;;;;;;10.93;8.97;;;;;;;16.75;100.00;97788.13;4100664;28;21226;-88
2023/07/26 01:02:36;;;;;;;15.67;10.37;;;;;;;16.73;100.00;97788.28;4113657;28;20758;-89
2023/07/26 01:04:40;;;;;;;14.00;9.80;;;;;;;16.74;100.00;97791.72;4103104;28;20672;-89
2023/07/26 01:06:50;;;;;;;13.57;9.13;;;;;;;16.73;100.00;97787.44;4122253;28;20693;-89
2023/07/26 01:09:01;;;;;;;14.57;10.53;;;;;;;16.74;100.00;97794.38;4112031;28;20701;-89
2023/07/26 01:11:07;;;;;;;13.90;10.47;;;;;;;16.73;100.00;97788.28;4101498;28;21318;-89
2023/07/26 01:13:15;;;;;;;15.47;10.50;;;;;;;16.72;100.00;97788.44;4120752;28;20704;-88
2023/07/26 01:15:18;;;;;;;14.10;10.30;;;;;;;16.69;100.00;97802.72;4106567;28;20648;-89
2023/07/26 01:17:21;;;;;;;13.90;9.77;;;;;;;16.69;100.00;97800.06;4117728;28;20651;-89
2023/07/26 01:19:25;;;;;;;11.77;9.63;;;;;;;16.71;100.00;97798.13;4104462;28;21283;-88
2023/07/26 01:21:31;;;;;;;11.90;9.63;;;;;;;16.72;100.00;97794.50;4108805;28;21120;-89
2023/07/26 01:23:35;;;;;;;13.63;10.33;;;;;;;16.72;100.00;97802.41;4105243;28;20699;-89
2023/07/26 01:25:38;;;;;;;15.73;11.23;;;;;;;16.72;100.00;97796.31;4112573;28;20764;-90
2023/07/26 01:27:41;;;;;;;15.13;10.47;;;;;;;16.71;100.00;97800.75;4099799;28;21354;-89
2023/07/26 01:29:44;;;;;;;13.90;9.93;;;;;;;16.70;100.00;97793.84;4139662;28;20636;-89
2023/07/26 01:31:48;;;;;;;14.60;11.00;;;;;;;16.71;100.00;97794.66;4121897;28;20671;-89
2023/07/26 01:33:52;;;;;;;14.77;10.10;;;;;;;16.70;100.00;97798.25;4105803;28;20676;-89
2023/07/26 01:35:56;;;;;;;15.90;10.77;;;;;;;16.69;100.00;97797.44;4112270;28;21057;-89
2023/07/26 01:38:04;;;;;;;15.10;11.10;;;;;;;16.69;100.00;97794.81;4118383;28;20670;-89
2023/07/26 01:40:09;;;;;;;13.67;10.30;;;;;;;16.68;100.00;97797.59;4106380;28;20733;-89
2023/07/26 01:42:12;;;;;;;13.70;10.77;;;;;;;16.68;100.00;97806.31;4128956;28;20768;-89
2023/07/26 01:44:15;;;;;;;13.70;9.87;;;;;;;16.67;100.00;97804.69;4124771;28;20696;-89
2023/07/26 01:46:18;;;;;;;12.93;10.60;;;;;;;16.64;100.00;97804.97;4119849;28;20650;-89
2023/07/26 01:48:21;;;;;;;14.13;9.70;;;;;;;16.59;100.00;97798.47;4110689;28;21233;-89
2023/07/26 01:50:25;;;;;;;12.60;10.20;;;;;;;16.55;100.00;97805.00;4125033;28;20646;-89
2023/07/26 01:52:28;;;;;;;14.13;11.13;;;;;;;16.55;100.00;97803.22;4119164;28;20646;-89
2023/07/26 01:54:32;;;;;;;17.70;11.97;;;;;;;16.56;100.00;97802.22;4120358;28;20657;-90
2023/07/26 01:56:35;;;;;;;16.10;12.20;;;;;;;16.57;100.00;97803.91;4117514;28;20723;-90
2023/07/26 01:58:39;;;;;;;15.80;11.60;;;;;;;16.57;100.00;97803.09;4106436;28;21324;-90
2023/07/26 02:00:42;;;;;;;15.37;11.00;;;;;;;16.56;100.00;97807.50;4122884;28;20665;-89
2023/07/26 02:02:45;;;;;;;15.43;11.97;;;;;;;16.57;100.00;97814.44;4103854;28;20677;-89
2023/07/26 02:04:48;;;;;;;16.10;11.60;;;;;;;16.58;100.00;97813.47;4118538;28;20696;-89
2023/07/26 02:06:52;;;;;;;18.03;10.80;;;;;;;16.56;100.00;97820.66;4136248;28;20738;-90
2023/07/26 02:08:55;;;;;;;17.90;11.87;;;;;;;16.56;100.00;97818.03;4113165;28;21062;-90
2023/07/26 02:11:00;;;;;;;15.40;11.53;;;;;;;16.56;100.00;97823.28;4119063;28;20690;-90
2023/07/26 02:13:03;;;;;;;16.70;12.47;;;;;;;16.57;100.00;97819.69;4120018;28;21407;-90
2023/07/26 02:15:07;;;;;;;16.67;12.63;;;;;;;16.57;100.00;97819.69;4119681;28;20746;-89
2023/07/26 02:17:09;;;;;;;17.10;12.73;;;;;;;16.57;100.00;97822.34;4105802;28;20752;-90
2023/07/26 02:19:12;;;;;;;16.10;12.30;;;;;;;16.58;100.00;97825.78;4102262;28;21301;-90
2023/07/26 02:21:16;;;;;;;19.10;13.43;;;;;;;16.57;100.00;97832.88;4109554;28;21114;-90
2023/07/26 02:23:19;;;;;;;16.80;12.33;;;;;;;16.56;100.00;97823.28;4121995;28;20646;-89
2023/07/26 02:25:23;;;;;;;18.70;13.87;;;;;;;16.57;100.00;97829.41;4138299;28;20764;-90
2023/07/26 02:27:27;;;;;;;17.93;13.63;;;;;;;16.55;100.00;97829.56;4121122;28;20690;-90
2023/07/26 02:29:29;;;;;;;18.00;13.20;;;;;;;16.54;100.00;97833.16;4118311;28;20654;-90
2023/07/26 02:31:33;;;;;;;17.50;12.70;;;;;;;16.53;100.00;97834.13;4102651;28;20667;-90
2023/07/26 02:33:36;;;;;;;20.03;13.97;;;;;;;16.52;100.00;97837.75;4115933;28;20693;-89
2023/07/26 02:35:39;;;;;;;16.50;12.00;;;;;;;16.52;100.00;97831.63;4123509;28;20721;-90
2023/07/26 02:37:43;;;;;;;18.33;13.20;;;;;;;16.52;100.00;97839.53;4106676;28;20649;-89
2023/07/26 02:39:46;;;;;;;17.07;12.30;;;;;;;16.49;100.00;97831.94;4103977;28;20710;-90
2023/07/26 02:41:49;;;;;;;17.33;13.13;;;;;;;16.48;100.00;97843.47;4134294;28;20708;-89
2023/07/26 02:43:53;;;;;;;15.70;12.00;;;;;;;16.46;100.00;97841.94;4120432;28;20649;-90
2023/07/26 02:45:56;;;;;;;17.57;12.67;;;;;;;16.44;100.00;97844.72;4115793;28;21138;-89
2023/07/26 02:48:00;;;;;;;14.83;11.47;;;;;;;16.42;100.00;97845.81;4111334;28;20701;-89
2023/07/26 02:50:04;;;;;;;16.47;12.80;;;;;;;16.39;100.00;97841.72;4124522;28;20739;-89
2023/07/26 02:52:09;;;;;;;17.17;12.10;;;;;;;16.37;100.00;97845.44;4123490;28;20684;-89
2023/07/26 02:54:12;;;;;;;16.33;11.93;;;;;;;16.35;100.00;97848.22;4103163;28;21242;-89
2023/07/26 02:56:15;;;;;;;16.47;11.80;;;;;;;16.35;100.00;97852.66;4117370;28;20643;-90
2023/07/26 02:58:18;;;;;;;14.70;10.33;;;;;;;16.33;100.00;97852.00;4136609;28;20681;-90
2023/07/26 03:00:23;;;;;;;13.47;9.63;;;;;;;16.31;100.00;97853.94;4121279;28;20646;-90
2023/07/26 03:02:26;;;;;;;14.23;10.87;;;;;;;16.24;100.00;97855.50;4122721;28;20742;-89
2023/07/26 03:04:30;;;;;;;11.67;9.30;;;;;;;16.22;100.00;97860.91;4122831;28;20689;-89
2023/07/26 03:06:33;;;;;;;11.77;9.67;;;;;;;16.19;100.00;97855.06;4127371;28;20701;-89
2023/07/26 03:08:36;;;;;;;12.63;9.60;;;;;;;16.16;100.00;97861.44;4120604;28;20657;-89
2023/07/26 03:10:40;;;;;;;13.07;9.23;;;;;;;16.14;100.00;97859.94;4111897;28;20805;-90
2023/07/26 03:12:43;;;;;;;15.10;9.07;;;;;;;16.12;100.00;97862.69;4124586;28;20697;-89
2023/07/26 03:14:46;;;;;;;12.10;8.40;;;;;;;16.08;100.00;97863.13;4109434;28;20654;-89
2023/07/26 03:16:50;;;;;;;13.43;8.60;;;;;;;16.07;99.83;97869.34;4121219;28;20666;-89
2023/07/26 03:18:53;;;;;;;9.23;7.20;;;;;;;16.04;100.00;97869.66;4122214;28;20711;-89
2023/07/26 03:20:56;;;;;;;9.27;7.67;;;;;;;16.03;100.00;97870.63;4113762;28;20675;-89
2023/07/26 03:22:59;;;;;;;12.10;7.70;;;;;;;16.01;100.00;97877.81;4134102;28;20948;-90
2023/07/26 03:25:03;;;;;;;9.10;6.47;;;;;;;15.99;100.00;97881.59;4127730;28;20749;-90
2023/07/26 03:27:08;;;;;;;8.67;6.87;;;;;;;15.95;100.00;97881.06;4105383;28;21111;-90
2023/07/26 03:29:11;;;;;;;7.93;7.00;;;;;;;15.92;100.00;97883.97;4127564;28;21230;-90
2023/07/26 03:31:14;;;;;;;9.33;7.00;;;;;;;15.91;100.00;97887.56;4110802;28;21240;-90
2023/07/26 03:33:19;;;;;;;8.33;6.30;;;;;;;15.88;98.59;97887.03;4102878;28;21034;-89
2023/07/26 03:35:22;;;;;;;8.67;6.77;;;;;;;15.84;99.25;97886.47;4136622;28;21208;-90
2023/07/26 03:37:25;;;;;;;8.10;6.43;;;;;;;15.84;99.68;97896.16;4122626;28;21078;-87
2023/07/26 03:39:28;;;;;;;8.67;7.50;;;;;;;15.80;99.14;97889.50;4123770;28;21241;-90
2023/07/26 03:41:32;;;;;;;8.60;6.57;;;;;;;15.77;100.00;97888.00;4121855;28;20753;-82
2023/07/26 03:43:36;;;;;;;8.33;6.60;;;;;;;15.77;100.00;97887.16;4098861;28;20650;-82
2023/07/26 03:45:40;;;;;;;8.37;6.50;;;;;;;15.77;100.00;97893.28;4120937;28;20638;-82
2023/07/26 03:47:44;;;;;;;7.90;6.27;;;;;;;15.74;100.00;97890.94;4103802;28;20648;-82
2023/07/26 03:49:49;;;;;;;7.97;7.17;;;;;;;15.73;99.89;97894.50;4110378;28;21294;-82
2023/07/26 03:51:52;;;;;;;9.33;6.80;;;;;;;15.73;100.00;97894.50;4107500;28;20639;-82
2023/07/26 03:53:56;;;;;;;9.00;7.43;;;;;;;15.73;99.37;97894.50;4108688;28;20734;-82
2023/07/26 03:56:00;;;;;;;9.17;6.70;;;;;;;15.70;100.00;97900.06;4103166;28;20652;-82
2023/07/26 03:58:03;;;;;;;8.70;7.00;;;;;;;15.72;98.93;97894.66;4116167;28;20762;-82
2023/07/26 04:00:08;;;;;;;9.20;7.40;;;;;;;15.72;99.53;97895.47;4119139;28;20738;-82
2023/07/26 04:02:15;;;;;;;11.63;7.17;;;;;;;15.70;100.00;97900.06;4137913;28;20760;-82
2023/07/26 04:04:18;;;;;;;7.60;6.40;;;;;;;15.72;100.00;97905.19;4123367;28;21120;-82
2023/07/26 04:06:24;;;;;;;9.00;7.50;;;;;;;15.70;100.00;97918.47;4100724;28;20667;-82
2023/07/26 04:08:27;;;;;;;8.47;6.70;;;;;;;15.70;100.00;97915.84;4109084;28;20767;-82
2023/07/26 04:10:30;;;;;;;7.70;6.87;;;;;;;15.69;100.00;97918.59;4138357;28;20695;-82
2023/07/26 04:12:34;;;;;;;10.53;6.37;;;;;;;15.67;100.00;97918.75;4104253;28;21056;-82
2023/07/26 04:14:37;;;;;;;8.83;7.30;;;;;;;15.67;100.00;97921.38;4125542;28;20753;-82
2023/07/26 04:16:41;;;;;;;9.70;7.00;;;;;;;15.66;100.00;97917.06;4126192;28;20734;-82
2023/07/26 04:18:46;;;;;;;11.70;7.37;;;;;;;15.68;100.00;97923.03;4100895;28;20655;-82
2023/07/26 04:20:48;;;;;;;11.43;7.30;;;;;;;15.70;100.00;97923.72;4108887;28;20646;-82
2023/07/26 04:22:53;;;;;;;8.60;7.10;;;;;;;15.73;100.00;97931.34;4109614;28;20674;-82
2023/07/26 04:24:56;;;;;;;10.17;7.50;;;;;;;15.73;100.00;97930.50;4108700;28;20651;-82
2023/07/26 04:26:59;;;;;;;8.77;6.93;;;;;;;15.73;100.00;97939.22;4119202;28;20654;-84
2023/07/26 04:29:04;;;;;;;10.13;7.43;;;;;;;15.74;100.00;97933.00;4135995;28;20758;-82
2023/07/26 04:31:09;;;;;;;11.97;8.03;;;;;;;15.73;100.00;97936.59;4109244;28;20661;-82
2023/07/26 04:33:12;;;;;;;8.93;6.97;;;;;;;15.78;100.00;97934.38;4132315;28;20645;-82
2023/07/26 04:35:16;;;;;;;9.80;8.00;;;;;;;15.80;100.00;97923.69;4132811;28;20642;-82
2023/07/26 04:37:19;;;;;;;8.97;7.70;;;;;;;15.83;100.00;97942.69;4133334;28;20702;-81
2023/07/26 04:39:24;;;;;;;11.23;7.70;;;;;;;15.87;100.00;97930.91;4134045;28;20638;-82
2023/07/26 04:41:28;;;;;;;9.90;7.90;;;;;;;15.87;100.00;97933.53;4109609;28;20733;-82
2023/07/26 04:43:32;;;;;;;10.20;7.77;;;;;;;15.92;100.00;97933.94;4119538;28;20654;-81
2023/07/26 04:45:36;;;;;;;9.03;7.70;;;;;;;15.94;100.00;97941.72;4124893;28;21482;-82
2023/07/26 04:47:39;;;;;;;9.90;7.70;;;;;;;15.95;100.00;97938.09;4118463;28;21138;-81
2023/07/26 04:49:42;;;;;;;9.47;7.20;;;;;;;15.98;100.00;97936.00;4134696;28;21300;-82
2023/07/26 04:51:46;;;;;;;8.23;6.50;;;;;;;16.02;100.00;97945.28;4137026;28;20708;-82
2023/07/26 04:53:49;;;;;;;10.60;6.90;;;;;;;16.06;100.00;97938.75;4133412;28;21431;-80
2023/07/26 04:55:56;;;;;;;18.67;14.70;;;;;;;16.12;100.00;97949.53;4135926;28;20662;-80
2023/07/26 04:57:59;;;;;;;9.43;7.63;;;;;;;16.18;100.00;97950.78;4111488;28;20687;-80
2023/07/26 05:00:03;;;;;;;7.67;6.87;;;;;;;16.22;100.00;97950.41;4124963;28;20778;-80
2023/07/26 05:02:07;;;;;;;9.00;7.07;;;;;;;16.26;100.00;97945.66;4110202;28;20709;-81
2023/07/26 05:04:13;;;;;;;8.40;6.73;;;;;;;16.32;100.00;97956.44;4103412;28;21284;-81
2023/07/26 05:06:18;;;;;;;8.53;6.77;;;;;;;16.36;100.00;97951.75;4119157;28;21044;-81
2023/07/26 05:08:22;;;;;;;9.00;6.60;;;;;;;16.39;100.00;97951.44;4126311;28;20681;-81
2023/07/26 05:10:26;;;;;;;8.10;6.97;;;;;;;16.41;100.00;97955.59;4102864;28;21048;-81
2023/07/26 05:12:34;;;;;;;8.13;6.70;;;;;;;16.43;100.00;97956.25;4106759;28;20761;-81
2023/07/26 05:14:38;;;;;;;10.03;6.20;;;;;;;16.46;100.00;97957.78;4103901;28;20659;-80
2023/07/26 05:16:42;;;;;;;9.57;7.10;;;;;;;16.50;99.05;97967.06;4095465;28;20656;-80
2023/07/26 05:18:46;;;;;;;8.53;7.03;;;;;;;16.51;100.00;97962.47;4101722;28;20658;-80
2023/07/26 05:20:51;;;;;;;7.83;6.57;;;;;;;16.54;100.00;97964.00;4120208;28;20655;-81
2023/07/26 05:22:54;;;;;;;8.60;6.90;;;;;;;16.55;100.00;97969.13;4105217;28;20755;-81
2023/07/26 05:24:58;;;;;;;7.60;6.47;;;;;;;16.57;98.49;97961.09;4101221;28;21079;-82
2023/07/26 05:27:00;;;;;;;9.00;7.60;;;;;;;16.60;98.12;97961.63;4129163;28;20688;-81
2023/07/26 05:29:05;;;;;;;7.57;6.30;;;;;;;16.64;98.18;97967.41;4097521;28;20653;-81
2023/07/26 05:31:09;;;;;;;6.93;5.70;;;;;;;16.65;98.56;97963.81;4134058;28;20657;-81
2023/07/26 05:33:14;;;;;;;8.40;6.30;;;;;;;16.67;98.19;97967.13;4117464;28;20666;-81
2023/07/26 05:35:17;;;;;;;7.80;6.80;;;;;;;16.64;98.01;97978.81;4106137;28;20635;-80
2023/07/26 05:37:20;;;;;;;8.53;6.80;;;;;;;16.67;97.31;97972.38;4131308;28;20668;-81
2023/07/26 05:39:27;;;;;;;7.47;6.37;;;;;;;16.68;98.54;97977.50;4120811;28;21043;-81
2023/07/26 05:41:31;;;;;;;7.30;6.60;;;;;;;16.66;98.18;97974.22;4113685;28;20656;-81
2023/07/26 05:43:35;;;;;;;7.90;6.97;;;;;;;16.68;97.40;97980.16;4106494;28;20770;-81
2023/07/26 05:45:41;;;;;;;7.90;6.00;;;;;;;16.70;98.42;97975.59;4108381;28;21068;-81
2023/07/26 05:47:45;;;;;;;9.70;6.67;;;;;;;16.67;97.10;97973.25;4132269;28;20707;-81
2023/07/26 05:49:48;;;;;;;6.67;5.93;;;;;;;16.68;96.74;97972.25;4116859;28;20701;-81
2023/07/26 05:51:52;;;;;;;7.47;6.70;;;;;;;16.68;97.40;97980.16;4109699;28;21011;-81
2023/07/26 05:53:55;;;;;;;9.17;6.63;;;;;;;16.64;96.65;97973.53;4123278;28;20648;-81
2023/07/26 05:55:58;;;;;;;7.50;6.30;;;;;;;16.65;97.46;97976.97;4110339;28;21106;-81
2023/07/26 05:58:01;;;;;;;7.83;6.00;;;;;;;16.63;96.11;97982.41;4129186;28;20690;-81
2023/07/26 06:00:07;;;;;;;8.93;6.13;;;;;;;16.66;96.76;97976.84;4106154;28;20638;-81
2023/07/26 06:02:17;;;;;;;7.50;6.70;;;;;;;16.69;96.13;97981.00;4123574;28;20686;-81
2023/07/26 06:04:21;;;;;;;7.60;6.47;;;;;;;16.69;96.55;97988.91;4097549;28;20719;-81
2023/07/26 06:06:24;;;;;;;7.00;6.00;;;;;;;16.70;95.70;97991.38;4122783;28;20689;-81
2023/07/26 06:08:27;;;;;;;7.70;6.50;;;;;;;16.66;95.67;97976.84;4106451;28;20775;-81
2023/07/26 06:10:31;;;;;;;10.40;6.33;;;;;;;16.70;95.62;97972.94;4112033;28;21053;-81
2023/07/26 06:12:35;;;;;;;8.60;6.90;;;;;;;16.74;96.34;97984.84;4122692;28;20650;-81
2023/07/26 06:14:38;;;;;;;8.07;7.27;;;;;;;16.80;95.17;97984.25;4123564;28;20653;-81
2023/07/26 06:16:41;;;;;;;9.37;6.50;;;;;;;16.87;96.83;97992.41;4111170;28;20698;-81
2023/07/26 06:18:46;;;;;;;10.23;6.30;;;;;;;16.93;95.26;97987.41;4107291;28;21249;-81
2023/07/26 06:20:49;;;;;;;7.83;6.93;;;;;;;16.99;95.47;97989.47;4119674;28;20770;-80
2023/07/26 06:22:52;;;;;;;8.30;6.63;;;;;;;17.01;95.72;97988.31;4121232;28;20639;-81
2023/07/26 06:24:55;;;;;;;7.00;6.20;;;;;;;17.06;95.50;98001.91;4108677;28;20639;-84
2023/07/26 06:26:59;;;;;;;7.87;7.07;;;;;;;17.06;94.81;97994.00;4117478;28;20651;-81
2023/07/26 06:29:02;;;;;;;7.83;7.13;;;;;;;17.09;94.83;97992.84;4105775;28;20668;-90
2023/07/26 06:31:05;;;;;;;8.27;6.90;;;;;;;17.12;95.83;97996.03;4134664;28;21232;-90
2023/07/26 06:33:08;;;;;;;7.67;6.87;;;;;;;17.14;94.30;97996.72;4124375;28;20698;-90
2023/07/26 06:35:13;;;;;;;7.80;6.90;;;;;;;17.14;94.45;97996.72;4126239;28;21300;-90
2023/07/26 06:37:15;;;;;;;7.63;6.50;;;;;;;17.15;94.02;98001.00;4122996;28;20628;-90
2023/07/26 06:39:18;;;;;;;6.77;6.07;;;;;;;17.15;93.35;97998.34;4120797;28;21025;-90
2023/07/26 06:41:21;;;;;;;8.63;6.70;;;;;;;17.17;94.01;97999.06;4138915;28;20696;-90
2023/07/26 06:43:24;;;;;;;7.00;6.30;;;;;;;17.18;94.35;98005.16;4104212;28;20648;-90
2023/07/26 06:45:27;;;;;;;8.10;6.93;;;;;;;17.17;94.29;97990.28;4118838;28;21070;-89
2023/07/26 06:47:31;;;;;;;8.20;6.67;;;;;;;17.17;95.08;97991.16;4113004;28;20646;-90
2023/07/26 06:49:34;;;;;;;10.27;7.90;;;;;;;17.17;93.80;97996.41;4143001;28;20657;-91
2023/07/26 06:51:38;;;;;;;8.50;7.10;;;;;;;17.17;94.12;98003.47;4111874;28;20662;-90
2023/07/26 06:53:41;;;;;;;8.43;6.93;;;;;;;17.18;95.26;98005.16;4124358;28;20749;-90
2023/07/26 06:55:44;;;;;;;8.00;6.50;;;;;;;17.17;94.99;98004.34;4105906;28;20660;-90
2023/07/26 06:57:48;;;;;;;9.20;6.70;;;;;;;17.17;94.29;98003.47;4103136;28;20648;-90
2023/07/26 06:59:51;;;;;;;8.43;7.33;;;;;;;17.11;93.36;98004.09;4121512;28;20668;-90
2023/07/26 07:01:54;;;;;;;7.27;6.57;;;;;;;17.08;94.25;98009.66;4119719;28;20658;-90
2023/07/26 07:03:57;;;;;;;7.33;6.60;;;;;;;17.11;93.93;97999.66;4138551;28;20658;-90
2023/07/26 07:06:15;;;;;;;8.17;6.87;;;;;;;17.20;94.50;98000.56;4139095;28;21063;-90
2023/07/26 07:08:20;;;;;;;7.93;6.70;;;;;;;17.30;94.97;98011.91;4122474;28;20757;-90
2023/07/26 07:10:23;;;;;;;8.70;6.97;;;;;;;17.36;94.31;98019.25;4125835;28;20675;-90
2023/07/26 07:12:27;;;;;;;7.30;6.60;;;;;;;17.46;94.18;98021.66;4097217;28;20647;-90
2023/07/26 07:14:30;;;;;;;7.93;7.13;;;;;;;17.47;93.13;98018.06;4136146;28;20654;-90
2023/07/26 07:16:34;;;;;;;7.23;6.53;;;;;;;17.43;92.99;98009.75;4120279;28;20710;-90
2023/07/26 07:18:37;;;;;;;8.80;6.77;;;;;;;17.46;94.13;98019.03;4117968;28;20651;-91
2023/07/26 07:20:40;;;;;;;8.00;7.20;;;;;;;17.49;93.97;98024.00;4108290;28;20698;-90
2023/07/26 07:22:43;;;;;;;7.90;7.10;;;;;;;17.48;93.86;98018.88;4118917;28;21104;-90
2023/07/26 07:24:48;;;;;;;8.77;6.53;;;;;;;17.48;94.30;98019.72;4115290;28;20767;-91
2023/07/26 07:26:51;;;;;;;8.47;7.07;;;;;;;17.53;95.41;98020.09;4123396;28;20652;-90
2023/07/26 07:28:54;;;;;;;8.20;6.50;;;;;;;17.49;94.74;98018.72;4124595;28;20799;-90
2023/07/26 07:30:57;;;;;;;10.80;7.40;;;;;;;17.54;93.38;98018.28;4107941;28;20654;-90
2023/07/26 07:33:00;;;;;;;8.03;6.57;;;;;;;17.57;93.98;98024.06;4107581;28;21362;-90
2023/07/26 07:35:04;;;;;;;7.57;6.80;;;;;;;17.60;93.97;98022.97;4102236;28;20651;-90
2023/07/26 07:37:07;;;;;;;7.10;6.40;;;;;;;17.63;92.66;98020.84;4118911;28;20761;-91
2023/07/26 07:39:12;;;;;;;7.63;6.43;;;;;;;17.69;92.75;98014.97;4119694;28;20656;-90
2023/07/26 07:41:16;;;;;;;8.13;5.87;;;;;;;17.76;92.42;98008.13;4136703;28;20706;-91
2023/07/26 07:43:19;;;;;;;11.00;7.13;;;;;;;17.78;92.26;98014.06;4115357;28;20701;-90
2023/07/26 07:45:22;;;;;;;11.10;7.77;;;;;;;17.80;92.35;98017.41;4117138;28;20674;-91
2023/07/26 07:47:25;;;;;;;6.87;5.97;;;;;;;17.82;92.22;98022.53;4114273;28;20684;-94
2023/07/26 07:49:29;;;;;;;10.00;7.13;;;;;;;17.82;92.42;98020.72;4118250;28;20672;-90
2023/07/26 07:51:32;;;;;;;6.67;5.70;;;;;;;17.81;92.69;98020.88;4131054;28;20750;-90
2023/07/26 07:53:36;;;;;;;6.17;5.47;;;;;;;17.76;91.87;98015.22;4130629;28;21270;-90
2023/07/26 07:55:40;;;;;;;6.57;5.87;;;;;;;17.71;91.84;98015.66;4134688;28;20650;-91
2023/07/26 07:57:44;;;;;;;6.67;5.90;;;;;;;17.63;92.04;98023.47;4118527;28;21080;-91
2023/07/26 07:59:47;;;;;;;7.23;5.97;;;;;;;17.57;92.56;98032.00;4114348;28;20681;-91
2023/07/26 08:01:50;;;;;;;6.97;5.97;;;;;;;17.49;92.38;98036.38;4116586;28;20679;-90
2023/07/26 08:03:53;;;;;;;5.33;4.83;;;;;;;17.33;93.36;98030.91;4133910;28;20787;-91
2023/07/26 08:05:56;;;;;;;5.60;4.83;;;;;;;17.19;93.16;98031.38;4118887;28;20657;-89
2023/07/26 08:07:59;;;;;;;6.67;5.93;;;;;;;17.03;94.11;98025.91;4122977;28;20675;-90
2023/07/26 08:10:03;;;;;;;9.07;4.90;;;;;;;16.93;95.07;98037.47;4118135;28;20662;-90
2023/07/26 08:12:06;;;;;;;7.80;5.40;;;;;;;16.83;95.49;98033.22;4124284;28;20655;-89
2023/07/26 08:14:11;;;;;;;6.63;5.60;;;;;;;16.74;96.07;98042.78;4140177;28;20687;-89
2023/07/26 08:16:15;;;;;;;6.90;5.40;;;;;;;16.70;96.64;98048.50;4125688;28;20679;-88
2023/07/26 08:18:18;;;;;;;7.10;5.90;;;;;;;16.68;97.00;98048.63;4120137;28;20654;-88
2023/07/26 08:20:21;;;;;;;5.60;5.10;;;;;;;16.65;96.19;98043.66;4134485;28;20645;-89
2023/07/26 08:22:24;;;;;;;7.10;5.90;;;;;;;16.62;96.31;98048.38;4119742;28;20646;-88
2023/07/26 08:24:27;;;;;;;4.80;4.27;;;;;;;16.58;96.11;98047.84;4135567;28;20648;-91
2023/07/26 08:26:31;;;;;;;7.43;4.47;;;;;;;16.55;95.56;98047.28;4137494;28;20678;-88
2023/07/26 08:28:34;;;;;;;5.60;4.83;;;;;;;16.52;95.46;98042.28;4119651;28;20722;-89
2023/07/26 08:30:39;;;;;;;5.67;4.60;;;;;;;16.52;96.54;98039.66;4137651;28;20744;-90
2023/07/26 08:32:42;;;;;;;5.60;5.00;;;;;;;16.51;96.68;98040.66;4134253;28;20675;-89
2023/07/26 08:34:45;;;;;;;5.57;5.07;;;;;;;16.52;95.60;98037.88;4138868;28;20637;-89
2023/07/26 08:36:48;;;;;;;6.10;5.20;;;;;;;16.57;97.71;98043.53;4132613;28;20669;-89
2023/07/26 08:38:52;;;;;;;6.47;5.80;;;;;;;16.67;98.08;98044.34;4123915;28;20760;-90
2023/07/26 08:40:55;;;;;;;6.10;5.43;;;;;;;16.80;97.31;98050.13;4135092;28;21077;-90
2023/07/26 08:43:03;;;;;;;6.30;5.70;;;;;;;16.98;98.33;98051.84;4106333;28;20644;-90
2023/07/26 08:45:07;;;;;;;12.93;6.80;;;;;;;17.15;98.60;98058.16;4122851;28;20813;-91
2023/07/26 08:47:13;;;;;;;7.40;6.23;;;;;;;17.31;98.10;98048.69;4118556;28;20650;-91
2023/07/26 08:49:16;;;;;;;8.03;7.00;;;;;;;17.47;99.20;98054.16;4111886;28;21248;-91
2023/07/26 08:51:21;;;;;;;7.40;6.37;;;;;;;17.60;98.13;98060.72;4117852;28;20765;-91
2023/07/26 08:53:25;;;;;;;7.43;6.60;;;;;;;17.72;97.61;98056.88;4119532;28;20650;-91
2023/07/26 08:55:27;;;;;;;6.90;6.20;;;;;;;17.81;97.55;98053.34;4103981;28;20738;-91
2023/07/26 08:57:30;;;;;;;9.60;6.13;;;;;;;17.88;97.12;98049.16;4132954;28;20655;-91
2023/07/26 08:59:32;;;;;;;6.80;6.10;;;;;;;17.92;95.53;98054.94;4123182;28;20667;-90
2023/07/26 09:01:36;;;;;;;6.60;6.00;;;;;;;17.92;95.79;98056.59;4128174;28;21289;-90
2023/07/26 09:04:00;;;;;;;7.63;6.47;;;;;;;18.03;96.16;98058.19;4096875;28;20668;-90
2023/07/26 09:06:05;;;;;;;7.63;6.30;;;;;;;18.07;95.85;98060.38;4113736;28;20662;-90
2023/07/26 09:08:08;;;;;;;9.50;6.10;;;;;;;18.13;95.92;98056.31;4130315;28;21336;-90
2023/07/26 09:10:11;;;;;;;7.30;5.30;;;;;;;18.25;95.02;98060.38;4135469;28;20819;-90
2023/07/26 09:12:25;;;;;;;8.37;6.00;;;;;;;18.41;96.06;98065.81;4129175;28;20653;-90
2023/07/26 09:14:31;;;;;;;6.67;5.97;;;;;;;18.45;92.84;98071.47;4136137;28;21232;-90
2023/07/26 09:16:34;;;;;;;7.23;5.10;;;;;;;18.52;93.49;98059.31;4133637;28;20694;-90
2023/07/26 09:18:39;;;;;;;6.20;5.60;;;;;;;18.62;93.41;98056.56;4105757;28;21061;-90
2023/07/26 09:20:44;;;;;;;7.00;5.60;;;;;;;18.67;93.71;98054.28;4138445;28;20674;-90
2023/07/26 09:22:47;;;;;;;6.13;5.53;;;;;;;18.65;92.31;98051.78;4125911;28;20650;-90
2023/07/26 09:24:50;;;;;;;7.13;5.60;;;;;;;18.63;93.24;98045.00;4133010;28;20730;-90
2023/07/26 09:26:54;;;;;;;7.13;5.07;;;;;;;18.61;93.40;98046.97;4122754;28;20675;-91
2023/07/26 09:28:57;;;;;;;7.17;5.67;;;;;;;18.59;92.08;98041.00;4133455;28;20651;-91
2023/07/26 09:31:00;;;;;;;6.27;5.30;;;;;;;18.59;93.48;98039.19;4119700;28;20675;-91
2023/07/26 09:33:04;;;;;;;6.57;5.97;;;;;;;18.60;93.48;98046.13;4107186;28;20708;-91
2023/07/26 09:35:08;;;;;;;6.40;5.80;;;;;;;18.60;92.00;98048.78;4112271;28;20859;-91